Time;durP1;ratioP1;P1;durP2;ratioP2;P2;SDS_P1;SDS_P2;PMS_P1;PMS_P2;Temp;Humidity;BMP_temperature;BMP_pressure;BME280_temperature;BME280_humidity;BME280_pressure;Samples;Min_cycle;Max_cycle;Signal;HPM_P1;HPM_P2
2024/01/08 00:02:30;;;;;;;10.73;7.07;;;-1.60;99.90;;;;;;5023157;28;20583;-66
2024/01/08 00:05:02;;;;;;;10.50;6.63;;;-1.60;99.90;;;;;;5020273;28;20051;-66
2024/01/08 00:07:34;;;;;;;8.77;6.68;;;-1.50;99.90;;;;;;5027889;28;20054;-65
2024/01/08 00:10:01;;;;;;;9.75;6.97;;;-1.50;99.90;;;;;;5020852;28;20042;-65
2024/01/08 00:12:32;;;;;;;9.35;6.28;;;-1.50;99.90;;;;;;5020563;28;20585;-66
2024/01/08 00:15:05;;;;;;;9.55;6.63;;;-1.60;99.90;;;;;;5014946;28;20383;-65
2024/01/08 00:17:36;;;;;;;10.18;5.78;;;-1.60;99.90;;;;;;5024713;28;20137;-65
2024/01/08 00:20:09;;;;;;;8.73;6.15;;;-1.60;99.90;;;;;;5020869;28;20046;-65
2024/01/08 00:22:41;;;;;;;7.53;4.72;;;-1.60;99.90;;;;;;5022651;28;20042;-65
2024/01/08 00:25:08;;;;;;;8.60;6.00;;;-1.70;99.90;;;;;;5027561;28;20148;-65
2024/01/08 00:27:40;;;;;;;8.05;5.70;;;-1.70;99.90;;;;;;5035080;28;20501;-65
2024/01/08 00:30:12;;;;;;;8.85;5.55;;;-1.80;99.90;;;;;;5026612;28;20050;-66
2024/01/08 00:32:44;;;;;;;8.82;5.93;;;-1.90;99.90;;;;;;5019287;28;20057;-65
2024/01/08 00:35:11;;;;;;;9.10;5.68;;;-1.90;99.90;;;;;;5024319;28;20124;-66
2024/01/08 00:37:43;;;;;;;6.32;4.70;;;-1.90;99.90;;;;;;5027616;28;20045;-65
2024/01/08 00:40:15;;;;;;;6.72;4.93;;;-1.90;99.90;;;;;;5027894;28;20069;-65
2024/01/08 00:42:47;;;;;;;7.25;5.50;;;-2.00;99.90;;;;;;5025673;28;20050;-65
2024/01/08 00:45:13;;;;;;;6.85;5.03;;;-2.00;99.90;;;;;;5024261;28;20141;-65
2024/01/08 00:47:45;;;;;;;7.63;5.45;;;-2.00;99.90;;;;;;5024259;28;20438;-65
2024/01/08 00:50:17;;;;;;;6.20;4.95;;;-2.00;99.90;;;;;;5006214;28;20044;-67
2024/01/08 00:52:48;;;;;;;9.23;6.00;;;-2.10;99.90;;;;;;5021424;28;20437;-65
2024/01/08 00:55:20;;;;;;;8.10;5.32;;;-2.00;99.90;;;;;;5026397;28;20045;-65
2024/01/08 00:57:47;;;;;;;8.52;5.50;;;-2.10;99.90;;;;;;5026413;28;20099;-65
2024/01/08 01:00:20;;;;;;;6.25;4.57;;;-2.10;99.90;;;;;;5027582;28;20037;-66
2024/01/08 01:02:52;;;;;;;6.40;4.95;;;-2.20;99.90;;;;;;5031812;28;20506;-65
2024/01/08 01:05:23;;;;;;;6.43;4.75;;;-2.20;99.90;;;;;;5025768;28;20045;-65
2024/01/08 01:07:55;;;;;;;6.32;5.07;;;-2.20;99.90;;;;;;5029210;28;20124;-65
2024/01/08 01:10:27;;;;;;;8.65;5.25;;;-2.30;99.90;;;;;;5024381;28;20069;-65
2024/01/08 01:12:59;;;;;;;8.63;5.60;;;-2.30;99.90;;;;;;5022617;28;20045;-65
2024/01/08 01:15:31;;;;;;;8.45;5.05;;;-2.30;99.90;;;;;;5016475;28;20050;-65
2024/01/08 01:18:00;;;;;;;5.78;4.75;;;-2.30;99.90;;;;;;5014798;28;20052;-65
2024/01/08 01:20:27;;;;;;;7.75;4.88;;;-2.40;99.90;;;;;;5017945;28;20045;-65
2024/01/08 01:22:54;;;;;;;7.70;4.68;;;-2.40;99.90;;;;;;5018318;28;20129;-65
2024/01/08 01:25:26;;;;;;;6.82;4.63;;;-2.40;99.90;;;;;;5026458;28;20096;-66
2024/01/08 01:27:58;;;;;;;7.50;4.40;;;-2.40;99.90;;;;;;5021180;28;20046;-65
2024/01/08 01:30:26;;;;;;;6.80;5.07;;;-2.40;99.90;;;;;;5031422;28;20038;-68
2024/01/08 01:32:58;;;;;;;6.53;4.55;;;-2.40;99.90;;;;;;5040592;28;20048;-65
2024/01/08 01:35:29;;;;;;;6.43;4.50;;;-2.40;99.90;;;;;;5018434;28;20046;-65
2024/01/08 01:38:01;;;;;;;7.38;4.90;;;-2.50;99.90;;;;;;5015231;28;20042;-65
2024/01/08 01:40:28;;;;;;;7.85;4.35;;;-2.50;99.90;;;;;;5016208;28;20464;-65
2024/01/08 01:42:55;;;;;;;9.43;5.13;;;-2.50;99.90;;;;;;5019819;28;20132;-65
2024/01/08 01:45:22;;;;;;;7.65;5.10;;;-2.50;99.90;;;;;;5022071;28;20042;-65
2024/01/08 01:47:55;;;;;;;5.95;4.25;;;-2.50;99.90;;;;;;5005484;28;20053;-65
2024/01/08 01:50:23;;;;;;;6.28;4.75;;;-2.60;99.90;;;;;;5031017;28;20041;-65
2024/01/08 01:52:55;;;;;;;6.88;4.35;;;-2.60;99.90;;;;;;5026513;28;20045;-65
2024/01/08 01:55:27;;;;;;;5.75;4.30;;;-2.60;99.90;;;;;;5024806;28;20042;-65
2024/01/08 01:57:59;;;;;;;4.15;3.47;;;-2.60;99.90;;;;;;5020995;28;20121;-65
2024/01/08 02:00:32;;;;;;;6.05;4.28;;;-2.60;99.90;;;;;;5028449;28;20034;-65
2024/01/08 02:03:06;;;;;;;3.90;3.45;;;-2.60;99.90;;;;;;5023548;28;20045;-64
2024/01/08 02:05:38;;;;;;;4.28;3.30;;;-2.70;99.90;;;;;;5013806;28;20089;-64
2024/01/08 02:08:11;;;;;;;6.95;4.18;;;-2.70;99.90;;;;;;5015662;28;20050;-65
2024/01/08 02:10:43;;;;;;;7.43;4.07;;;-2.70;99.90;;;;;;5026885;28;20128;-65
2024/01/08 02:13:15;;;;;;;6.07;4.22;;;-2.70;99.90;;;;;;5028083;28;20587;-65
2024/01/08 02:15:42;;;;;;;5.80;4.55;;;-2.60;99.90;;;;;;5023690;28;20120;-65
2024/01/08 02:18:14;;;;;;;6.72;4.07;;;-2.70;99.90;;;;;;5007424;28;20475;-65
2024/01/08 02:20:46;;;;;;;6.05;4.28;;;-2.70;99.90;;;;;;5022252;28;20033;-65
2024/01/08 02:23:18;;;;;;;7.43;3.70;;;-2.80;99.90;;;;;;5025105;28;20136;-65
2024/01/08 02:25:49;;;;;;;5.18;3.67;;;-2.80;99.90;;;;;;5026830;28;20054;-65
2024/01/08 02:28:21;;;;;;;7.50;4.45;;;-2.80;99.90;;;;;;5019727;28;20414;-65
2024/01/08 02:30:55;;;;;;;6.10;4.53;;;-2.80;99.90;;;;;;5028542;28;20042;-65
2024/01/08 02:33:27;;;;;;;;;;;-2.80;99.90;;;;;;5019774;28;20042;-65
2024/01/08 02:36:00;;;;;;;7.00;3.78;;;-2.80;99.90;;;;;;5027026;28;19921;-65
2024/01/08 02:38:32;;;;;;;5.47;3.92;;;-2.80;99.90;;;;;;5025126;28;20048;-65
2024/01/08 02:41:04;;;;;;;6.15;4.03;;;-2.80;99.90;;;;;;5021262;28;20037;-65
2024/01/08 02:43:32;;;;;;;7.90;4.47;;;-2.80;99.90;;;;;;5022583;28;20048;-65
2024/01/08 02:46:04;;;;;;;7.53;4.80;;;-2.90;99.90;;;;;;5022863;28;20060;-65
2024/01/08 02:48:36;;;;;;;5.88;4.20;;;-2.90;99.90;;;;;;5024100;28;20052;-65
2024/01/08 02:51:07;;;;;;;6.97;4.50;;;-2.90;99.90;;;;;;5018942;28;20047;-65
2024/01/08 02:53:39;;;;;;;5.82;4.60;;;-2.90;99.90;;;;;;5017506;28;20587;-64
2024/01/08 02:56:19;;;;;;;5.15;4.00;;;-2.80;99.90;;;;;;5020559;28;20358;-65
2024/01/08 02:58:51;;;;;;;7.00;4.72;;;-2.80;99.90;;;;;;5023188;28;20042;-65
2024/01/08 03:01:23;;;;;;;6.28;4.38;;;-2.80;99.90;;;;;;5026040;28;20048;-65
2024/01/08 03:03:49;;;;;;;8.13;4.18;;;-2.80;99.90;;;;;;5016519;28;20041;-64
2024/01/08 03:06:21;;;;;;;8.20;4.68;;;-2.80;99.90;;;;;;5018182;28;20510;-65
2024/01/08 03:08:48;;;;;;;5.63;4.20;;;-2.80;99.90;;;;;;5023325;28;20132;-65
2024/01/08 03:11:21;;;;;;;6.28;3.97;;;-2.80;99.90;;;;;;5022866;28;20042;-65
2024/01/08 03:13:48;;;;;;;6.95;4.47;;;-2.80;99.90;;;;;;5020993;28;20048;-65
2024/01/08 03:16:20;;;;;;;6.60;4.05;;;-2.80;99.90;;;;;;5019287;28;20049;-65
2024/01/08 03:18:52;;;;;;;6.45;4.30;;;-2.80;99.90;;;;;;5024996;28;20056;-65
2024/01/08 03:21:19;;;;;;;6.05;4.18;;;-2.80;99.90;;;;;;5023829;28;20521;-65
2024/01/08 03:23:51;;;;;;;6.18;4.28;;;-2.80;99.90;;;;;;5012253;28;20399;-65
2024/01/08 03:26:22;;;;;;;5.57;3.75;;;-2.80;99.90;;;;;;5013352;28;20046;-65
2024/01/08 03:28:49;;;;;;;4.32;3.45;;;-2.80;99.90;;;;;;5015258;28;20065;-65
2024/01/08 03:31:21;;;;;;;6.28;4.07;;;-2.80;99.90;;;;;;5019573;28;20532;-65
2024/01/08 03:33:53;;;;;;;6.55;4.22;;;-2.80;99.90;;;;;;5012595;28;20033;-65
2024/01/08 03:36:25;;;;;;;6.88;4.35;;;-2.80;99.90;;;;;;5027953;28;20049;-65
2024/01/08 03:38:56;;;;;;;5.80;4.00;;;-2.90;99.90;;;;;;5026850;28;20101;-65
2024/01/08 03:41:28;;;;;;;6.75;4.25;;;-2.80;99.90;;;;;;5046327;28;20046;-64
2024/01/08 03:44:01;;;;;;;6.13;4.50;;;-2.90;99.90;;;;;;5035994;28;20056;-65
2024/01/08 03:46:33;;;;;;;5.28;4.00;;;-2.90;99.90;;;;;;5017533;28;20052;-65
2024/01/08 03:49:00;;;;;;;6.43;4.05;;;-2.90;99.90;;;;;;5021261;28;20503;-65
2024/01/08 03:51:32;;;;;;;6.82;4.32;;;-2.80;99.90;;;;;;5011399;28;20128;-65
2024/01/08 03:54:03;;;;;;;5.10;3.78;;;-2.90;99.90;;;;;;5020031;28;20072;-65
2024/01/08 03:56:35;;;;;;;6.63;4.53;;;-2.90;99.90;;;;;;5021655;28;20104;-65
2024/01/08 03:59:07;;;;;;;6.25;4.18;;;-2.90;99.90;;;;;;5017957;28;20056;-65
2024/01/08 04:01:44;;;;;;;6.03;3.55;;;-2.90;99.90;;;;;;5021110;28;20045;-65
2024/01/08 04:04:11;;;;;;;6.88;4.20;;;-2.80;99.90;;;;;;5022120;28;20069;-65
2024/01/08 04:06:43;;;;;;;6.65;4.30;;;-2.90;99.90;;;;;;5023834;28;20038;-65
2024/01/08 04:09:12;;;;;;;7.78;4.50;;;-2.80;99.90;;;;;;5019417;28;20045;-65
2024/01/08 04:11:39;;;;;;;5.32;4.15;;;-2.80;99.90;;;;;;5029023;28;20547;-65
2024/01/08 04:14:12;;;;;;;9.75;4.50;;;-2.80;99.90;;;;;;5014452;28;20407;-65
2024/01/08 04:16:44;;;;;;;10.18;4.30;;;-2.80;99.90;;;;;;5013062;28;20458;-65
2024/01/08 04:19:18;;;;;;;7.60;4.13;;;-2.80;99.90;;;;;;5019270;28;20044;-65
2024/01/08 04:21:45;;;;;;;5.63;4.13;;;-2.80;99.90;;;;;;5013567;28;20129;-65
2024/01/08 04:24:16;;;;;;;6.13;4.25;;;-2.80;99.90;;;;;;5017966;28;20057;-66
2024/01/08 04:26:48;;;;;;;6.45;4.70;;;-2.90;99.90;;;;;;5023210;28;20037;-67
2024/01/08 04:29:20;;;;;;;7.65;4.50;;;-2.80;99.90;;;;;;5021039;28;20425;-65
2024/01/08 04:31:47;;;;;;;8.35;4.68;;;-2.80;99.90;;;;;;5020478;28;20124;-65
2024/01/08 04:34:19;;;;;;;9.27;4.40;;;-2.90;99.90;;;;;;5020518;28;20517;-65
2024/01/08 04:36:51;;;;;;;8.45;4.65;;;-2.90;99.90;;;;;;5019885;28;20041;-65
2024/01/08 04:39:23;;;;;;;11.20;4.85;;;-2.80;99.90;;;;;;5015736;28;20042;-65
2024/01/08 04:41:55;;;;;;;6.28;4.38;;;-2.80;99.90;;;;;;5012458;28;20049;-65
2024/01/08 04:44:22;;;;;;;6.78;3.97;;;-2.80;99.90;;;;;;5012834;28;20034;-65
2024/01/08 04:46:49;;;;;;;9.45;5.30;;;-2.80;99.90;;;;;;5007625;28;20048;-65
2024/01/08 04:49:21;;;;;;;6.82;4.93;;;-2.80;99.90;;;;;;5022071;28;20037;-65
2024/01/08 04:51:50;;;;;;;5.70;4.18;;;-2.80;99.90;;;;;;5018515;28;20103;-65
2024/01/08 04:54:17;;;;;;;6.68;4.60;;;-2.80;99.90;;;;;;5018558;28;20048;-66
2024/01/08 04:56:48;;;;;;;6.95;4.38;;;-2.80;99.90;;;;;;5021936;28;20042;-66
2024/01/08 04:59:15;;;;;;;6.90;4.28;;;-2.80;99.90;;;;;;5022132;28;20148;-66
2024/01/08 05:01:48;;;;;;;7.57;4.60;;;-2.70;99.90;;;;;;5017892;28;20038;-66
2024/01/08 05:04:20;;;;;;;5.53;4.20;;;-2.70;99.90;;;;;;5018607;28;20410;-65
2024/01/08 05:06:52;;;;;;;7.25;4.60;;;-2.80;99.90;;;;;;5020094;28;20053;-65
2024/01/08 05:09:24;;;;;;;6.80;4.40;;;-2.80;99.90;;;;;;5014146;28;20049;-66
2024/01/08 05:11:56;;;;;;;7.72;4.97;;;-2.80;99.90;;;;;;5030182;28;20042;-65
2024/01/08 05:14:28;;;;;;;7.35;5.03;;;-2.80;99.90;;;;;;5017641;28;20038;-65
2024/01/08 05:16:55;;;;;;;7.57;4.25;;;-2.80;99.90;;;;;;5028614;28;20380;-66
2024/01/08 05:19:27;;;;;;;8.07;5.00;;;-2.80;99.90;;;;;;5030163;28;20034;-65
2024/01/08 05:21:59;;;;;;;7.47;4.57;;;-2.80;99.90;;;;;;5024318;28;20046;-67
2024/01/08 05:24:31;;;;;;;7.30;4.72;;;-2.80;99.90;;;;;;5026215;28;20095;-65
2024/01/08 05:27:03;;;;;;;6.30;4.30;;;-2.70;99.90;;;;;;5026722;28;20051;-65
2024/01/08 05:29:35;;;;;;;6.63;4.65;;;-2.80;99.90;;;;;;5031724;28;20084;-65
2024/01/08 05:32:07;;;;;;;5.78;3.72;;;-2.80;99.90;;;;;;5023982;28;20060;-65
2024/01/08 05:34:41;;;;;;;6.93;5.22;;;-2.80;99.90;;;;;;5025852;28;20044;-66
2024/01/08 05:37:13;;;;;;;7.05;4.68;;;-2.80;99.90;;;;;;5017482;28;20033;-65
2024/01/08 05:39:45;;;;;;;7.05;4.22;;;-2.80;99.90;;;;;;5027440;28;20116;-65
2024/01/08 05:42:17;;;;;;;7.03;4.75;;;-2.80;99.90;;;;;;5032295;28;20076;-65
2024/01/08 05:44:43;;;;;;;9.95;5.57;;;-2.80;99.90;;;;;;5027793;28;20029;-65
2024/01/08 05:47:15;;;;;;;8.82;5.40;;;-2.80;99.90;;;;;;5029704;28;20045;-66
2024/01/08 05:49:43;;;;;;;22.88;9.63;;;-2.70;99.90;;;;;;5042745;28;20040;-65
2024/01/08 05:52:15;;;;;;;9.65;5.00;;;-2.70;99.90;;;;;;5049360;28;20049;-65
2024/01/08 05:54:42;;;;;;;6.93;4.50;;;-2.70;99.90;;;;;;5028829;28;20045;-65
2024/01/08 05:57:14;;;;;;;14.63;7.32;;;-2.70;99.90;;;;;;5030324;28;20045;-65
2024/01/08 05:59:45;;;;;;;16.52;7.78;;;-2.70;99.90;;;;;;5029529;28;20064;-65
2024/01/08 06:02:13;;;;;;;37.60;15.48;;;-2.70;99.90;;;;;;5025847;28;20709;-65
2024/01/08 06:04:45;;;;;;;21.35;9.98;;;-2.70;99.90;;;;;;5040431;28;20103;-65
2024/01/08 06:07:17;;;;;;;11.63;7.07;;;-2.70;99.90;;;;;;5024289;28;20124;-65
2024/01/08 06:09:49;;;;;;;7.75;4.65;;;-2.70;99.90;;;;;;5031345;28;20041;-65
2024/01/08 06:12:21;;;;;;;8.48;5.78;;;-2.70;99.90;;;;;;5019563;28;20042;-64
2024/01/08 06:14:55;;;;;;;7.80;5.10;;;-2.70;99.90;;;;;;5030452;28;20037;-64
2024/01/08 06:17:22;;;;;;;8.02;4.93;;;-2.80;99.90;;;;;;5026797;28;20038;-65
2024/01/08 06:19:54;;;;;;;6.78;5.10;;;-2.80;99.90;;;;;;5028461;28;20243;-65
2024/01/08 06:22:26;;;;;;;7.55;4.60;;;-2.90;99.90;;;;;;5024622;28;20513;-65
2024/01/08 06:24:53;;;;;;;7.57;4.65;;;-2.90;99.90;;;;;;5027661;28;20038;-64
2024/01/08 06:27:25;;;;;;;8.60;5.10;;;-2.90;99.90;;;;;;5023569;28;20080;-65
2024/01/08 06:29:58;;;;;;;6.95;4.88;;;-2.80;99.90;;;;;;5021030;28;20042;-65
2024/01/08 06:32:30;;;;;;;9.45;4.88;;;-2.90;99.90;;;;;;5026411;28;20049;-64
2024/01/08 06:35:02;;;;;;;7.82;5.47;;;-2.90;99.90;;;;;;5030352;28;20041;-64
2024/01/08 06:37:34;;;;;;;14.40;7.37;;;-2.80;99.90;;;;;;5024323;28;20034;-64
2024/01/08 06:40:07;;;;;;;8.57;5.30;;;-2.90;99.90;;;;;;5026667;28;20049;-65
2024/01/08 06:42:39;;;;;;;5.70;4.75;;;-2.90;99.90;;;;;;5029057;28;20042;-65
2024/01/08 06:45:11;;;;;;;7.20;4.55;;;-2.80;99.90;;;;;;5028242;28;20497;-65
2024/01/08 06:47:43;;;;;;;7.70;4.35;;;-2.80;99.90;;;;;;5026843;28;20416;-65
2024/01/08 06:50:15;;;;;;;8.75;5.78;;;-2.90;99.90;;;;;;5026503;28;20049;-65
2024/01/08 06:52:47;;;;;;;11.55;6.30;;;-2.80;99.90;;;;;;5008894;28;20073;-65
2024/01/08 06:55:19;;;;;;;8.48;5.05;;;-2.90;99.90;;;;;;5021766;28;20038;-65
2024/01/08 06:57:52;;;;;;;8.25;4.75;;;-2.90;99.90;;;;;;5028673;28;20053;-64
2024/01/08 07:00:19;;;;;;;7.80;5.70;;;-2.90;99.90;;;;;;5027896;28;20057;-65
2024/01/08 07:02:51;;;;;;;14.65;7.45;;;-2.90;99.90;;;;;;5026588;28;20049;-65
2024/01/08 07:05:23;;;;;;;8.20;5.22;;;-2.80;99.90;;;;;;5028464;28;20505;-65
2024/01/08 07:07:56;;;;;;;7.78;5.10;;;-2.80;99.90;;;;;;5032806;28;20052;-65
2024/01/08 07:10:23;;;;;;;7.20;4.55;;;-2.80;99.90;;;;;;5029797;28;20120;-64
2024/01/08 07:12:54;;;;;;;8.23;4.90;;;-2.80;99.90;;;;;;5026247;28;20046;-64
2024/01/08 07:15:45;;;;;;;7.50;4.90;;;-2.90;99.90;;;;;;5032893;28;20119;-65
2024/01/08 07:18:20;;;;;;;6.93;4.28;;;-2.90;99.90;;;;;;5022879;28;20100;-65
2024/01/08 07:20:52;;;;;;;6.47;4.18;;;-2.90;99.90;;;;;;5024057;28;20037;-65
2024/01/08 07:23:19;;;;;;;6.50;4.45;;;-2.80;99.90;;;;;;5028028;28;20056;-65
2024/01/08 07:25:52;;;;;;;6.97;4.75;;;-2.80;99.90;;;;;;5022886;28;20414;-65
2024/01/08 07:28:25;;;;;;;6.75;4.45;;;-2.80;99.90;;;;;;5028474;28;20052;-65
2024/01/08 07:30:57;;;;;;;6.63;3.75;;;-2.80;99.90;;;;;;5031403;28;20052;-65
2024/01/08 07:33:29;;;;;;;6.50;4.50;;;-2.80;99.90;;;;;;5025122;28;20048;-64
2024/01/08 07:36:00;;;;;;;7.03;4.22;;;-2.70;99.90;;;;;;5029201;28;20072;-65
2024/01/08 07:38:32;;;;;;;5.75;3.67;;;-2.70;99.90;;;;;;5027377;28;20447;-65
2024/01/08 07:41:07;;;;;;;5.68;4.05;;;-2.70;99.90;;;;;;5028981;28;20120;-65
2024/01/08 07:43:38;;;;;;;7.18;4.13;;;-2.70;99.90;;;;;;5013459;28;20045;-65
2024/01/08 07:46:10;;;;;;;5.78;4.13;;;-2.70;99.90;;;;;;5028521;28;20080;-64
2024/01/08 07:48:42;;;;;;;8.35;5.28;;;-2.70;99.90;;;;;;5021525;28;20092;-65
2024/01/08 07:51:22;;;;;;;7.88;4.15;;;-2.70;99.90;;;;;;5010238;28;20506;-65
2024/01/08 07:53:54;;;;;;;8.73;5.25;;;-2.70;99.90;;;;;;5047154;28;20042;-65
2024/01/08 07:56:26;;;;;;;7.45;4.88;;;-2.60;99.90;;;;;;5032593;28;20498;-65
2024/01/08 07:58:58;;;;;;;7.03;4.88;;;-2.70;99.90;;;;;;5035782;28;20037;-64
2024/01/08 08:01:30;;;;;;;6.45;4.65;;;-2.60;99.90;;;;;;5034550;28;20045;-65
2024/01/08 08:04:02;;;;;;;6.28;4.38;;;-2.60;99.90;;;;;;5024807;28;20403;-64
2024/01/08 08:06:33;;;;;;;6.95;4.40;;;-2.50;99.90;;;;;;5022117;28;20045;-65
2024/01/08 08:09:01;;;;;;;7.38;4.40;;;-2.50;99.90;;;;;;5014830;28;20620;-65
2024/01/08 08:11:33;;;;;;;7.63;4.50;;;-2.50;99.90;;;;;;5018002;28;20052;-65
2024/01/08 08:14:05;;;;;;;7.22;4.55;;;-2.50;99.90;;;;;;5009876;28;20136;-65
2024/01/08 08:16:37;;;;;;;11.10;6.53;;;-2.40;99.90;;;;;;5019403;28;20045;-65
2024/01/08 08:19:08;;;;;;;8.23;5.22;;;-2.40;99.90;;;;;;5019378;28;20414;-64
2024/01/08 08:21:41;;;;;;;7.57;4.82;;;-2.40;99.90;;;;;;5017553;28;20049;-64
2024/01/08 08:24:12;;;;;;;6.97;4.57;;;-2.40;99.90;;;;;;5026211;28;20068;-65
2024/01/08 08:26:44;;;;;;;8.13;4.70;;;-2.40;99.90;;;;;;5028454;28;20526;-65
2024/01/08 08:29:16;;;;;;;8.00;4.47;;;-2.40;99.90;;;;;;5021275;28;20049;-65
2024/01/08 08:31:50;;;;;;;6.85;4.60;;;-2.40;99.90;;;;;;5019650;28;20051;-65
2024/01/08 08:34:16;;;;;;;10.63;5.15;;;-2.40;99.90;;;;;;5019630;28;20048;-65
2024/01/08 08:36:48;;;;;;;15.82;7.55;;;-2.40;99.90;;;;;;5024359;28;20041;-65
2024/01/08 08:39:22;;;;;;;55.30;20.30;;;-2.40;99.90;;;;;;5017367;28;20049;-65
2024/01/08 08:41:56;;;;;;;69.90;25.48;;;-2.40;99.90;;;;;;5017955;28;20079;-65
2024/01/08 08:44:24;;;;;;;20.00;9.65;;;-2.30;99.90;;;;;;5024419;28;20160;-65
2024/01/08 08:46:57;;;;;;;11.70;6.38;;;-2.30;99.90;;;;;;5023973;28;20445;-65
2024/01/08 08:49:29;;;;;;;8.82;5.22;;;-2.30;99.90;;;;;;5025163;28;20046;-65
2024/01/08 08:52:02;;;;;;;9.00;5.28;;;-2.20;99.90;;;;;;5026023;28;20057;-65
2024/01/08 08:54:34;;;;;;;6.45;3.78;;;-2.20;99.90;;;;;;5027360;28;20048;-65
2024/01/08 08:57:01;;;;;;;10.85;5.78;;;-2.20;99.90;;;;;;5028277;28;20041;-65
2024/01/08 08:59:37;;;;;;;8.15;5.03;;;-2.20;99.90;;;;;;5019149;28;20490;-65
2024/01/08 09:02:08;;;;;;;12.35;5.85;;;-2.20;99.90;;;;;;5024741;28;20041;-65
2024/01/08 09:04:41;;;;;;;23.02;9.45;;;-2.20;99.90;;;;;;5030914;28;20137;-65
2024/01/08 09:07:08;;;;;;;14.40;7.97;;;-2.20;99.90;;;;;;5028744;28;20065;-67
2024/01/08 09:09:35;;;;;;;14.15;7.20;;;-2.20;99.90;;;;;;5029602;28;20037;-65
2024/01/08 09:12:07;;;;;;;10.13;5.80;;;-2.10;99.90;;;;;;5024179;28;20045;-65
2024/01/08 09:14:40;;;;;;;13.43;7.22;;;-2.10;99.90;;;;;;5023471;28;20065;-67
2024/01/08 09:17:07;;;;;;;15.40;7.80;;;-2.10;99.90;;;;;;5021115;28;20045;-65
2024/01/08 09:19:35;;;;;;;10.25;6.38;;;-2.20;99.90;;;;;;5026290;28;20052;-65
2024/01/08 09:22:07;;;;;;;12.23;6.27;;;-2.10;99.90;;;;;;5038919;28;20053;-65
2024/01/08 09:24:33;;;;;;;10.10;5.65;;;-2.10;99.90;;;;;;5024698;28;20307;-66
2024/01/08 09:27:05;;;;;;;10.60;5.68;;;-2.10;99.90;;;;;;5022044;28;20407;-66
2024/01/08 09:29:37;;;;;;;16.15;6.85;;;-2.10;99.90;;;;;;5024424;28;20037;-65
2024/01/08 09:32:04;;;;;;;14.35;6.07;;;-2.10;99.90;;;;;;5022497;28;20047;-65
2024/01/08 09:34:31;;;;;;;17.75;8.63;;;-2.10;99.90;;;;;;5024307;28;20065;-66
2024/01/08 09:36:58;;;;;;;12.57;7.80;;;-2.10;99.90;;;;;;5023397;28;20128;-65
2024/01/08 09:39:32;;;;;;;12.93;7.10;;;-2.10;99.90;;;;;;5028058;28;20041;-66
2024/01/08 09:42:03;;;;;;;8.00;5.60;;;-2.10;99.90;;;;;;5043359;28;20100;-65
2024/01/08 09:44:38;;;;;;;8.57;4.85;;;-2.10;99.90;;;;;;5025863;28;20120;-65
2024/01/08 09:47:05;;;;;;;8.30;5.32;;;-2.00;99.90;;;;;;5022231;28;20044;-66
2024/01/08 09:49:39;;;;;;;7.72;5.20;;;-2.00;99.90;;;;;;5024900;28;20042;-65
2024/01/08 09:52:13;;;;;;;7.75;4.85;;;-2.00;99.90;;;;;;5010292;28;20041;-65
2024/01/08 09:54:42;;;;;;;7.20;4.72;;;-2.00;99.90;;;;;;5019944;28;20072;-65
2024/01/08 09:57:14;;;;;;;8.88;6.30;;;-1.90;99.90;;;;;;5022963;28;20037;-65
2024/01/08 09:59:46;;;;;;;7.07;4.65;;;-1.90;99.90;;;;;;5020054;28;20034;-66
2024/01/08 10:02:18;;;;;;;8.85;6.28;;;-1.90;99.90;;;;;;5023158;28;20128;-66
2024/01/08 10:04:44;;;;;;;7.63;5.25;;;-1.90;99.90;;;;;;5021155;28;20052;-65
2024/01/08 10:07:17;;;;;;;7.25;5.22;;;-1.90;99.90;;;;;;5037046;28;20060;-65
2024/01/08 10:09:50;;;;;;;10.88;5.88;;;-1.90;99.90;;;;;;5046262;28;20135;-66
2024/01/08 10:12:22;;;;;;;9.27;5.93;;;-1.80;99.90;;;;;;5023070;28;20049;-66
2024/01/08 10:14:49;;;;;;;9.35;6.03;;;-1.90;99.90;;;;;;5024143;28;20038;-66
2024/01/08 10:17:24;;;;;;;8.43;5.22;;;-1.90;99.90;;;;;;5029242;28;20049;-65
2024/01/08 10:20:08;;;;;;;9.38;5.20;;;-1.80;99.90;;;;;;5030545;28;20040;-66
2024/01/08 10:22:40;;;;;;;9.35;5.90;;;-1.80;99.90;;;;;;5016907;28;20042;-68
2024/01/08 10:25:21;;;;;;;8.70;5.63;;;-1.70;99.90;;;;;;5029775;28;20053;-66
2024/01/08 10:27:54;;;;;;;16.05;7.68;;;-1.70;99.90;;;;;;5017908;28;20120;-65
2024/01/08 10:30:26;;;;;;;12.23;6.85;;;-1.60;99.90;;;;;;5027284;28;20069;-65
2024/01/08 10:32:59;;;;;;;10.90;5.88;;;-1.50;99.90;;;;;;5026644;28;20050;-66
2024/01/08 10:35:31;;;;;;;10.07;5.57;;;-1.50;99.90;;;;;;5025602;28;20121;-66
2024/01/08 10:38:04;;;;;;;11.13;5.38;;;-1.40;99.90;;;;;;5026659;28;20054;-68
2024/01/08 10:40:30;;;;;;;9.45;6.13;;;-1.50;99.90;;;;;;5032116;28;20105;-65
2024/01/08 10:43:03;;;;;;;10.27;6.07;;;-1.40;99.90;;;;;;5030462;28;20124;-66
2024/01/08 10:45:30;;;;;;;9.05;5.80;;;-1.40;99.90;;;;;;5032246;28;20124;-66
2024/01/08 10:48:21;;;;;;;10.63;6.55;;;-1.30;99.90;;;;;;5031002;28;20050;-65
2024/01/08 10:50:54;;;;;;;9.07;5.10;;;-1.20;99.90;;;;;;5029947;28;20041;-65
2024/01/08 10:53:45;;;;;;;8.35;5.75;;;-1.10;99.90;;;;;;5030716;28;20041;-65
2024/01/08 10:56:21;;;;;;;8.55;5.93;;;-1.10;99.90;;;;;;5027003;28;20120;-65
2024/01/08 10:59:09;;;;;;;10.15;6.00;;;-1.10;99.90;;;;;;5025859;28;20427;-66
2024/01/08 11:01:41;;;;;;;9.38;5.80;;;-1.00;99.90;;;;;;5031337;28;20061;-65
2024/01/08 11:04:09;;;;;;;11.02;5.72;;;-0.90;99.90;;;;;;5024399;28;20048;-65
2024/01/08 11:06:42;;;;;;;9.43;6.20;;;-0.90;99.90;;;;;;5025045;28;20037;-65
2024/01/08 11:09:25;;;;;;;9.48;6.22;;;-0.90;99.90;;;;;;5021506;28;20042;-66
2024/01/08 11:11:57;;;;;;;9.38;6.18;;;-0.90;99.90;;;;;;5019962;28;20049;-65
2024/01/08 11:14:24;;;;;;;8.02;5.13;;;-0.90;99.90;;;;;;5022186;28;20291;-66
2024/01/08 11:16:51;;;;;;;7.72;5.50;;;-0.90;99.90;;;;;;5023976;28;20498;-66
2024/01/08 11:19:26;;;;;;;10.85;5.18;;;-1.00;99.90;;;;;;5012732;28;20049;-66
2024/01/08 11:22:10;;;;;;;5.90;4.72;;;-1.00;99.90;;;;;;5023229;28;20059;-65
2024/01/08 11:24:43;;;;;;;8.63;5.55;;;-0.90;99.90;;;;;;5026999;28;20076;-65
2024/01/08 11:27:16;;;;;;;7.15;5.47;;;-0.80;99.90;;;;;;5023902;28;20546;-65
2024/01/08 11:29:45;;;;;;;9.57;6.13;;;-0.80;99.90;;;;;;5023767;28;20511;-66
2024/01/08 11:32:38;;;;;;;11.88;6.82;;;-0.80;99.90;;;;;;5026260;28;20562;-65
2024/01/08 11:35:13;;;;;;;9.88;6.13;;;-0.70;99.90;;;;;;5025545;28;20051;-66
2024/01/08 11:37:42;;;;;;;7.35;4.57;;;-0.70;99.90;;;;;;5031516;28;20046;-66
2024/01/08 11:40:18;;;;;;;7.25;4.93;;;-0.70;99.90;;;;;;5021128;28;20494;-66
2024/01/08 11:42:50;;;;;;;9.43;5.65;;;-0.70;99.90;;;;;;5022303;28;20040;-66
2024/01/08 11:45:22;;;;;;;8.77;5.70;;;-0.80;99.90;;;;;;5025774;28;20046;-65
2024/01/08 11:47:54;;;;;;;6.40;5.22;;;-0.80;99.90;;;;;;5037726;28;20084;-66
2024/01/08 11:50:21;;;;;;;9.20;6.10;;;-0.80;99.90;;;;;;5021618;28;20506;-66
2024/01/08 11:52:49;;;;;;;30.15;13.05;;;-0.90;99.90;;;;;;5020250;28;20041;-65
2024/01/08 11:55:23;;;;;;;14.63;8.48;;;-0.90;99.90;;;;;;5027831;28;20044;-66
2024/01/08 11:57:55;;;;;;;38.22;16.88;;;-0.90;99.90;;;;;;5026177;28;20053;-66
2024/01/08 12:00:29;;;;;;;29.33;13.60;;;-1.00;99.90;;;;;;5026344;28;20037;-67
2024/01/08 12:03:05;;;;;;;24.67;11.68;;;-1.00;99.90;;;;;;5021312;28;20046;-66
2024/01/08 12:05:37;;;;;;;22.30;10.55;;;-0.90;99.90;;;;;;5024820;28;20117;-66
2024/01/08 12:08:16;;;;;;;14.70;9.10;;;-0.90;99.90;;;;;;5016462;28;20046;-66
2024/01/08 12:10:53;;;;;;;17.85;10.48;;;-0.90;99.90;;;;;;5019910;28;20107;-66
2024/01/08 12:13:25;;;;;;;10.73;6.28;;;-1.00;99.90;;;;;;5019318;28;20049;-66
2024/01/08 12:15:57;;;;;;;13.48;8.40;;;-1.00;99.90;;;;;;5037845;28;20039;-67
2024/01/08 12:18:25;;;;;;;16.30;8.70;;;-1.00;99.90;;;;;;5039647;28;20417;-65
2024/01/08 12:20:56;;;;;;;14.48;8.50;;;-1.10;99.90;;;;;;5026100;28;20123;-66
2024/01/08 12:23:28;;;;;;;9.90;6.75;;;-1.10;99.90;;;;;;5026024;28;20066;-66
2024/01/08 12:26:03;;;;;;;9.57;7.07;;;-1.00;99.90;;;;;;5021666;28;20131;-66
2024/01/08 12:28:35;;;;;;;11.50;8.30;;;-1.10;99.90;;;;;;5005512;28;20057;-67
2024/01/08 12:31:02;;;;;;;17.95;11.05;;;-1.10;99.90;;;;;;5022409;28;20268;-65
2024/01/08 12:33:34;;;;;;;11.75;8.18;;;-1.00;99.90;;;;;;5020379;28;20042;-66
2024/01/08 12:36:07;;;;;;;11.07;7.07;;;-0.90;99.90;;;;;;5015755;28;20091;-67
2024/01/08 12:38:39;;;;;;;12.02;8.50;;;-1.00;99.90;;;;;;5015880;28;20042;-65
2024/01/08 12:41:05;;;;;;;9.90;6.72;;;-0.90;99.90;;;;;;5017060;28;20046;-65
2024/01/08 12:43:37;;;;;;;10.93;7.65;;;-0.80;99.90;;;;;;5021144;28;20048;-66
2024/01/08 12:46:05;;;;;;;13.18;7.95;;;-0.80;99.90;;;;;;5026132;28;20045;-66
2024/01/08 12:48:36;;;;;;;13.13;7.90;;;-0.70;99.90;;;;;;5022619;28;20514;-65
2024/01/08 12:51:09;;;;;;;12.32;6.25;;;-0.80;99.90;;;;;;5024926;28;20045;-66
2024/01/08 12:53:41;;;;;;;13.30;7.32;;;-0.70;99.90;;;;;;5029801;28;20123;-65
2024/01/08 12:56:13;;;;;;;12.60;8.25;;;-0.70;99.90;;;;;;5012611;28;20553;-65
2024/01/08 12:58:48;;;;;;;10.05;6.75;;;-0.60;99.90;;;;;;5028980;28;20656;-65
2024/01/08 13:01:20;;;;;;;13.93;8.40;;;-0.60;99.90;;;;;;5026000;28;20103;-66
2024/01/08 13:03:52;;;;;;;11.95;7.30;;;-0.60;99.90;;;;;;5023642;28;20038;-65
2024/01/08 13:06:24;;;;;;;10.95;7.40;;;-0.60;99.90;;;;;;5027562;28;20129;-65